Time;durP1;ratioP1;P1;durP2;ratioP2;P2;SDS_P1;SDS_P2;PMS_P1;PMS_P2;Temp;Humidity;BMP_temperature;BMP_pressure;BME280_temperature;BME280_humidity;BME280_pressure;Samples;Min_cycle;Max_cycle;Signal;HPM_P1;HPM_P2
2022/11/05 00:10:22;;;;;;;22.30;6.40;;;9.10;38.90;;;;;;4979941;28;20472;-60
2022/11/05 00:18:19;;;;;;;8.97;6.00;;;9.00;39.20;;;;;;4983784;28;20505;-60
2022/11/05 00:20:45;;;;;;;10.27;5.43;;;9.00;39.30;;;;;;4986771;28;20460;-60
2022/11/05 00:25:58;;;;;;;7.90;5.17;;;9.00;39.40;;;;;;4987211;23;20958;-66
2022/11/05 00:28:26;;;;;;;8.43;5.10;;;9.00;39.60;;;;;;4951530;28;20962;-66
2022/11/05 00:30:53;;;;;;;8.33;5.10;;;8.90;39.60;;;;;;4968326;28;21135;-65
2022/11/05 00:33:21;;;;;;;8.40;5.00;;;9.00;39.60;;;;;;4958667;28;20635;-66
2022/11/05 00:35:48;;;;;;;7.93;5.30;;;9.00;39.60;;;;;;4972021;28;20486;-64
2022/11/05 00:38:15;;;;;;;8.00;5.30;;;9.00;39.60;;;;;;4963731;28;20457;-64
2022/11/05 00:40:41;;;;;;;8.73;5.37;;;9.00;39.70;;;;;;4958573;28;20505;-64
2022/11/05 00:45:52;;;;;;;8.97;5.90;;;9.00;39.60;;;;;;4960702;28;20487;-63
2022/11/05 00:51:05;;;;;;;7.80;5.03;;;9.00;39.60;;;;;;4964563;28;20837;-63
2022/11/05 00:53:32;;;;;;;7.93;5.17;;;9.00;39.60;;;;;;4966602;28;20853;-63
2022/11/05 00:56:00;;;;;;;6.87;4.70;;;9.00;39.70;;;;;;4964192;28;20493;-63
2022/11/05 00:58:27;;;;;;;11.30;4.90;;;9.10;39.70;;;;;;4960182;28;20458;-63
2022/11/05 01:00:56;;;;;;;8.70;4.93;;;9.10;39.80;;;;;;4965533;28;20560;-63
2022/11/05 01:03:26;;;;;;;7.47;4.80;;;9.10;39.60;;;;;;4965559;28;20823;-63
2022/11/05 01:05:55;;;;;;;9.07;4.93;;;9.10;39.70;;;;;;4964321;28;20489;-63
2022/11/05 01:08:24;;;;;;;8.13;4.50;;;9.10;39.70;;;;;;4957927;28;20553;-64
2022/11/05 01:10:52;;;;;;;8.53;5.23;;;9.10;39.70;;;;;;4967073;28;20461;-63
2022/11/05 01:13:22;;;;;;;7.70;4.33;;;9.10;39.80;;;;;;4959227;28;20464;-64
2022/11/05 01:15:49;;;;;;;10.10;5.70;;;9.10;39.70;;;;;;4965601;28;20493;-63
2022/11/05 01:18:17;;;;;;;7.07;4.57;;;9.20;39.60;;;;;;4960704;28;20476;-63
2022/11/05 01:20:45;;;;;;;8.07;4.73;;;9.20;39.70;;;;;;4957811;28;20469;-63
2022/11/05 01:23:12;;;;;;;7.00;4.50;;;9.20;39.70;;;;;;4960767;28;21008;-63
2022/11/05 01:25:39;;;;;;;7.10;4.23;;;9.20;39.50;;;;;;4956904;28;20811;-63
2022/11/05 01:28:08;;;;;;;8.13;4.47;;;9.20;39.60;;;;;;4962602;28;20462;-63
2022/11/05 01:30:35;;;;;;;7.13;4.13;;;9.20;39.50;;;;;;4966800;28;20465;-63
2022/11/05 01:33:03;;;;;;;10.07;5.20;;;9.20;39.50;;;;;;4963065;28;20471;-64
2022/11/05 01:35:30;;;;;;;6.97;4.70;;;9.20;39.60;;;;;;4966836;28;20477;-63
2022/11/05 01:37:58;;;;;;;7.77;4.07;;;9.20;39.50;;;;;;4961122;28;20463;-63
2022/11/05 01:40:25;;;;;;;6.20;3.77;;;9.20;39.50;;;;;;4964961;28;20819;-63
2022/11/05 01:42:53;;;;;;;8.77;4.60;;;9.20;39.50;;;;;;4967415;28;20827;-63
2022/11/05 01:45:22;;;;;;;9.80;4.67;;;9.20;40.20;;;;;;4960888;28;20469;-62
2022/11/05 01:47:58;;;;;;;9.00;5.10;;;9.20;39.70;;;;;;4964651;28;21214;-63
2022/11/05 01:50:35;;;;;;;8.93;4.60;;;9.20;39.60;;;;;;4959211;28;20467;-63
2022/11/05 01:53:09;;;;;;;8.50;4.43;;;9.20;39.60;;;;;;4957854;28;20469;-63
2022/11/05 01:55:40;;;;;;;7.40;4.27;;;9.20;39.50;;;;;;4965465;28;20496;-63
2022/11/05 01:58:10;;;;;;;7.47;4.70;;;9.20;39.50;;;;;;4964607;28;20472;-63
2022/11/05 02:00:38;;;;;;;7.83;4.03;;;9.20;39.50;;;;;;4965218;28;20465;-63
2022/11/05 02:03:05;;;;;;;9.97;4.50;;;9.20;39.60;;;;;;4958464;28;20462;-63
2022/11/05 02:05:33;;;;;;;11.03;5.13;;;9.20;39.60;;;;;;4960087;28;20480;-62
2022/11/05 02:08:00;;;;;;;8.30;4.20;;;9.20;39.70;;;;;;4962798;28;20470;-63
2022/11/05 02:10:29;;;;;;;8.40;4.40;;;9.20;39.70;;;;;;4961082;28;20470;-63
2022/11/05 02:12:55;;;;;;;8.27;4.57;;;9.20;39.60;;;;;;4962016;28;20472;-63
2022/11/05 02:15:32;;;;;;;7.43;4.43;;;9.20;39.70;;;;;;4956394;28;20493;-64
2022/11/05 02:18:10;;;;;;;8.37;5.17;;;9.30;39.60;;;;;;4960230;28;20464;-63
2022/11/05 02:20:46;;;;;;;7.20;4.57;;;9.30;39.60;;;;;;4958764;28;20985;-64
2022/11/05 02:23:55;;;;;;;7.83;4.00;;;9.30;39.60;;;;;;4951145;28;21061;-65
2022/11/05 02:26:49;;;;;;;8.77;4.60;;;9.20;39.90;;;;;;4955484;28;21063;-65
2022/11/05 02:30:01;;;;;;;7.13;4.53;;;9.20;39.80;;;;;;4961045;28;20472;-65
2022/11/05 02:32:39;;;;;;;6.20;4.00;;;9.20;39.90;;;;;;4923164;28;20505;-65
2022/11/05 02:35:15;;;;;;;9.00;4.83;;;9.20;39.80;;;;;;4960976;28;20461;-65
2022/11/05 02:37:46;;;;;;;10.43;4.93;;;9.20;39.90;;;;;;4964438;28;20962;-64
2022/11/05 02:40:18;;;;;;;8.37;4.60;;;9.20;39.80;;;;;;4961868;28;20472;-64
2022/11/05 02:42:53;;;;;;;8.10;4.23;;;9.20;39.90;;;;;;4966312;28;20472;-64
2022/11/05 02:45:32;;;;;;;7.27;4.30;;;9.20;39.90;;;;;;4957498;28;20457;-64
2022/11/05 02:48:09;;;;;;;7.77;4.73;;;9.20;39.90;;;;;;4958576;28;21014;-64
2022/11/05 02:50:46;;;;;;;7.87;3.90;;;9.20;40.00;;;;;;4959913;28;20497;-65
2022/11/05 02:53:19;;;;;;;6.80;4.60;;;9.20;39.90;;;;;;4960775;28;20469;-64
2022/11/05 02:55:52;;;;;;;9.30;4.60;;;9.20;39.80;;;;;;4954883;28;20489;-64
2022/11/05 02:58:19;;;;;;;6.80;3.70;;;9.30;39.80;;;;;;4959101;28;20458;-62
2022/11/05 03:00:49;;;;;;;6.30;3.60;;;9.30;39.60;;;;;;4957552;28;20487;-65
2022/11/05 03:03:26;;;;;;;9.20;3.63;;;9.30;39.70;;;;;;4961360;28;20458;-63
2022/11/05 03:06:17;;;;;;;7.10;4.00;;;9.30;39.80;;;;;;4957471;28;20484;-63
2022/11/05 03:08:57;;;;;;;8.33;4.30;;;9.30;39.80;;;;;;4959474;28;20471;-63
2022/11/05 03:11:26;;;;;;;6.07;3.70;;;9.30;39.80;;;;;;4964302;28;20977;-63
2022/11/05 03:13:58;;;;;;;7.13;3.50;;;9.30;39.70;;;;;;4969704;28;20469;-63
2022/11/05 03:16:32;;;;;;;8.70;3.50;;;9.30;39.60;;;;;;4960818;28;20489;-63
2022/11/05 03:19:07;;;;;;;5.93;3.60;;;9.30;39.50;;;;;;4962176;28;20478;-63
2022/11/05 03:21:41;;;;;;;7.50;3.50;;;9.30;39.60;;;;;;4962654;28;20466;-63
2022/11/05 03:24:12;;;;;;;5.73;3.43;;;9.30;39.50;;;;;;4958511;28;20465;-63
2022/11/05 03:26:46;;;;;;;6.40;3.97;;;9.30;39.50;;;;;;4956914;28;20493;-63
2022/11/05 03:29:19;;;;;;;7.60;3.93;;;9.40;39.40;;;;;;4962019;28;20647;-63
2022/11/05 03:31:48;;;;;;;9.00;3.57;;;9.40;39.40;;;;;;4957022;28;20482;-63
2022/11/05 03:34:19;;;;;;;6.63;3.97;;;9.40;39.30;;;;;;4966965;28;20471;-63
2022/11/05 03:36:51;;;;;;;6.93;3.23;;;9.40;39.40;;;;;;4962334;28;20525;-63
2022/11/05 03:39:23;;;;;;;6.63;4.10;;;9.40;39.30;;;;;;4959732;28;20461;-63
2022/11/05 03:41:53;;;;;;;7.60;3.90;;;9.40;39.30;;;;;;4956574;28;20472;-63
2022/11/05 03:44:25;;;;;;;6.70;3.60;;;9.40;39.30;;;;;;4965283;28;21335;-63
2022/11/05 03:46:56;;;;;;;6.90;4.40;;;9.40;39.40;;;;;;4960119;28;20484;-63
2022/11/05 03:49:29;;;;;;;6.23;3.57;;;9.40;39.40;;;;;;4960972;28;20458;-63
2022/11/05 03:52:01;;;;;;;6.37;3.40;;;9.40;39.40;;;;;;4960066;28;20469;-63
2022/11/05 03:54:28;;;;;;;6.60;3.93;;;9.40;39.50;;;;;;4960321;28;20463;-63
2022/11/05 03:57:03;;;;;;;6.90;3.20;;;9.40;39.40;;;;;;4963221;28;20495;-63
2022/11/05 03:59:31;;;;;;;7.10;3.30;;;9.40;39.30;;;;;;4961763;28;20813;-63
2022/11/05 04:01:58;;;;;;;5.70;3.20;;;9.40;39.30;;;;;;4962472;28;20476;-63
2022/11/05 04:04:26;;;;;;;7.47;3.67;;;9.40;39.40;;;;;;4962150;28;21000;-63
2022/11/05 04:15:06;;;;;;;7.23;3.30;;;9.40;39.30;;;;;;4969586;28;20482;-63
2022/11/05 04:17:32;;;;;;;6.70;3.43;;;9.40;39.30;;;;;;4961973;28;20489;-63
2022/11/05 04:25:29;;;;;;;8.83;4.10;;;9.40;39.40;;;;;;4961453;28;20460;-63
2022/11/05 04:27:59;;;;;;;7.57;4.07;;;9.40;39.40;;;;;;4963153;28;20458;-63
2022/11/05 04:30:25;;;;;;;8.80;3.67;;;9.40;39.50;;;;;;4960443;28;20462;-63
2022/11/05 04:33:01;;;;;;;5.97;3.27;;;9.40;39.50;;;;;;4963035;28;20465;-63
2022/11/05 04:35:31;;;;;;;8.07;3.63;;;9.40;39.80;;;;;;4963895;28;20492;-63
2022/11/05 04:37:58;;;;;;;7.23;4.50;;;9.40;39.80;;;;;;4958857;28;20458;-63
2022/11/05 04:40:25;;;;;;;10.27;4.40;;;9.40;39.90;;;;;;4965924;28;21607;-63
2022/11/05 04:42:54;;;;;;;7.30;4.43;;;9.40;39.80;;;;;;4961211;28;20470;-63
2022/11/05 04:45:20;;;;;;;7.00;4.27;;;9.40;39.90;;;;;;4961507;28;20461;-63
2022/11/05 04:47:47;;;;;;;8.63;4.73;;;9.40;39.90;;;;;;4960742;28;20462;-63
2022/11/05 04:50:14;;;;;;;8.87;4.90;;;9.40;39.90;;;;;;4963862;28;20476;-63
2022/11/05 04:52:42;;;;;;;8.67;5.30;;;9.40;39.90;;;;;;4961319;28;20544;-62
2022/11/05 04:55:10;;;;;;;12.33;4.30;;;9.40;40.00;;;;;;4961672;28;20472;-63
2022/11/05 04:57:36;;;;;;;8.40;4.70;;;9.40;39.90;;;;;;4955810;28;20487;-63
2022/11/05 05:00:04;;;;;;;8.83;5.20;;;9.40;40.00;;;;;;4957321;28;20485;-63
2022/11/05 05:02:32;;;;;;;7.63;4.97;;;9.40;39.90;;;;;;4952659;28;21138;-63
2022/11/05 05:04:59;;;;;;;8.87;6.07;;;9.50;40.00;;;;;;4958348;28;20481;-63
2022/11/05 05:07:27;;;;;;;9.83;5.57;;;9.40;39.90;;;;;;4950211;28;20478;-63
2022/11/05 05:09:55;;;;;;;12.73;5.97;;;9.40;39.90;;;;;;4958766;28;20508;-63
2022/11/05 05:12:22;;;;;;;9.63;5.80;;;9.40;40.00;;;;;;4956367;28;20473;-63
2022/11/05 05:14:49;;;;;;;8.90;5.40;;;9.40;40.00;;;;;;4963077;28;20470;-63
2022/11/05 05:17:16;;;;;;;9.00;5.60;;;9.40;39.90;;;;;;4959674;28;20485;-63
2022/11/05 05:22:28;;;;;;;15.63;6.60;;;9.40;40.10;;;;;;4972508;28;20468;-62
2022/11/05 05:24:58;;;;;;;9.60;6.40;;;9.40;40.10;;;;;;4963875;28;20724;-63
2022/11/05 05:27:28;;;;;;;11.67;7.00;;;9.40;40.20;;;;;;4972407;28;20485;-63
2022/11/05 05:29:55;;;;;;;11.13;7.10;;;9.40;40.20;;;;;;4967191;28;20533;-63
2022/11/05 05:32:22;;;;;;;10.10;6.70;;;9.40;40.10;;;;;;4965324;28;20481;-66
2022/11/05 05:34:49;;;;;;;10.80;7.07;;;9.40;40.20;;;;;;4965995;28;20457;-63
2022/11/05 05:37:16;;;;;;;9.90;7.60;;;9.40;39.90;;;;;;4961724;28;20584;-63
2022/11/05 05:39:44;;;;;;;10.63;7.23;;;9.50;40.10;;;;;;4957552;28;20466;-63
2022/11/05 05:42:13;;;;;;;11.37;8.07;;;9.40;40.30;;;;;;4965307;28;20462;-63
2022/11/05 05:44:40;;;;;;;11.80;8.27;;;9.50;40.30;;;;;;4965654;28;20474;-63
2022/11/05 05:47:06;;;;;;;11.53;8.40;;;9.50;40.30;;;;;;4964277;28;20477;-63
2022/11/05 05:49:33;;;;;;;13.53;8.40;;;9.40;40.20;;;;;;4965018;28;20466;-63
2022/11/05 05:52:00;;;;;;;11.67;7.83;;;9.40;40.40;;;;;;4959281;28;20465;-63
2022/11/05 05:54:27;;;;;;;12.77;8.63;;;9.50;40.30;;;;;;4967319;28;20882;-63
2022/11/05 05:56:53;;;;;;;12.10;8.07;;;9.50;40.30;;;;;;4959687;28;20497;-63
2022/11/05 05:59:22;;;;;;;12.67;8.83;;;9.50;40.40;;;;;;4962252;28;20830;-64
2022/11/05 06:01:48;;;;;;;15.40;8.30;;;9.50;40.40;;;;;;4960228;28;20489;-64
2022/11/05 06:04:16;;;;;;;11.87;8.60;;;9.50;40.30;;;;;;4964163;28;20569;-64
2022/11/05 06:06:45;;;;;;;10.80;8.07;;;9.50;40.30;;;;;;4961963;28;20489;-64
2022/11/05 06:09:12;;;;;;;11.53;8.40;;;9.50;40.40;;;;;;4960028;28;20549;-64
2022/11/05 06:11:39;;;;;;;15.00;10.27;;;9.40;40.40;;;;;;4960831;28;20492;-65
2022/11/05 06:14:06;;;;;;;12.47;8.57;;;9.50;40.50;;;;;;4965323;28;20462;-64
2022/11/05 06:16:35;;;;;;;13.40;8.53;;;9.50;40.50;;;;;;4961366;28;20792;-65
2022/11/05 06:19:01;;;;;;;15.97;9.60;;;9.50;40.60;;;;;;4959927;28;21281;-64
2022/11/05 06:21:28;;;;;;;13.37;8.57;;;9.50;40.60;;;;;;4966596;28;20473;-64
2022/11/05 06:23:55;;;;;;;10.70;8.00;;;9.60;40.50;;;;;;4959945;28;20462;-64
2022/11/05 06:26:22;;;;;;;13.27;9.00;;;9.50;40.50;;;;;;4967598;28;20485;-64
2022/11/05 06:28:49;;;;;;;13.80;9.60;;;9.50;40.70;;;;;;4960925;28;20462;-64
2022/11/05 06:31:15;;;;;;;10.90;8.10;;;9.50;40.80;;;;;;4990798;23;20475;-58
2022/11/05 06:33:43;;;;;;;10.50;8.10;;;9.60;40.70;;;;;;5002809;28;20839;-60
2022/11/05 06:36:14;;;;;;;10.47;7.83;;;9.60;40.70;;;;;;5010909;28;20463;-61
2022/11/05 06:38:41;;;;;;;11.33;7.70;;;9.60;40.50;;;;;;4999580;28;20460;-61
2022/11/05 06:41:08;;;;;;;11.23;7.80;;;9.60;40.50;;;;;;4997070;28;20868;-59
2022/11/05 06:43:35;;;;;;;9.50;6.87;;;9.70;40.50;;;;;;4984543;28;20850;-59
2022/11/05 06:46:03;;;;;;;9.70;7.13;;;9.70;40.50;;;;;;4983229;28;20987;-60
2022/11/05 06:48:30;;;;;;;17.10;7.50;;;9.70;40.60;;;;;;4983787;28;20468;-59
2022/11/05 06:50:58;;;;;;;10.23;7.63;;;9.70;40.60;;;;;;4985949;28;20488;-59
2022/11/05 06:53:25;;;;;;;10.63;7.40;;;9.70;40.40;;;;;;4985234;28;20461;-61
2022/11/05 06:55:52;;;;;;;10.10;8.30;;;9.70;40.50;;;;;;4989295;28;20462;-59
2022/11/05 06:58:19;;;;;;;11.63;7.93;;;9.70;40.30;;;;;;4981844;28;20473;-59
2022/11/05 07:00:46;;;;;;;11.10;8.03;;;9.70;40.40;;;;;;4980330;28;20525;-58
2022/11/05 07:03:13;;;;;;;10.13;7.27;;;9.70;40.60;;;;;;4978987;28;20480;-58
2022/11/05 07:05:43;;;;;;;9.37;7.27;;;9.70;40.50;;;;;;4982132;28;20472;-58
2022/11/05 07:08:12;;;;;;;11.53;7.67;;;9.70;40.60;;;;;;4988535;28;20463;-58
2022/11/05 07:10:39;;;;;;;12.17;8.20;;;9.70;40.80;;;;;;4982531;28;20993;-58
2022/11/05 07:13:05;;;;;;;13.93;8.33;;;9.70;40.80;;;;;;4985132;28;20552;-58
2022/11/05 07:15:32;;;;;;;12.77;8.90;;;9.80;40.60;;;;;;4976306;28;20457;-58
2022/11/05 07:18:00;;;;;;;11.70;8.90;;;9.80;40.60;;;;;;4968056;28;21012;-58
2022/11/05 07:20:27;;;;;;;12.43;8.50;;;9.80;40.60;;;;;;4973840;28;20484;-59
2022/11/05 07:23:02;;;;;;;12.00;8.50;;;9.80;40.70;;;;;;4972696;28;20457;-58
2022/11/05 07:25:31;;;;;;;12.10;9.53;;;9.80;40.60;;;;;;4974939;28;20494;-58
2022/11/05 07:27:58;;;;;;;13.90;9.03;;;9.80;40.50;;;;;;4983622;28;21194;-58
2022/11/05 07:30:25;;;;;;;11.90;8.50;;;9.90;40.50;;;;;;4976515;28;20484;-58
2022/11/05 07:32:52;;;;;;;13.00;9.43;;;9.90;40.50;;;;;;4979288;28;21163;-58
2022/11/05 07:35:18;;;;;;;11.30;8.00;;;9.90;40.50;;;;;;4973180;28;20472;-59
2022/11/05 07:37:47;;;;;;;10.30;7.10;;;9.90;40.60;;;;;;4984841;28;20494;-59
2022/11/05 07:40:16;;;;;;;9.67;6.63;;;9.90;40.40;;;;;;4983309;28;20475;-59
2022/11/05 07:42:45;;;;;;;9.43;6.47;;;10.00;40.40;;;;;;4979336;28;20473;-59
2022/11/05 07:45:13;;;;;;;10.30;7.40;;;10.00;40.40;;;;;;4981091;28;20496;-59
2022/11/05 07:47:44;;;;;;;9.27;6.97;;;10.00;40.10;;;;;;4977188;28;20533;-59
2022/11/05 07:50:11;;;;;;;9.60;5.53;;;10.10;39.70;;;;;;4978233;28;20989;-59
2022/11/05 07:52:38;;;;;;;10.40;6.17;;;10.10;39.80;;;;;;4970105;28;20927;-59
2022/11/05 07:55:06;;;;;;;9.60;6.20;;;10.10;39.70;;;;;;4977039;28;20472;-59
2022/11/05 07:57:39;;;;;;;19.73;12.33;;;10.10;39.30;;;;;;4971925;28;20646;-59
2022/11/05 08:00:09;;;;;;;11.10;7.63;;;10.10;39.30;;;;;;4969868;28;20466;-59
2022/11/05 08:02:36;;;;;;;10.03;5.87;;;10.10;39.40;;;;;;4970803;28;20488;-59
2022/11/05 08:05:03;;;;;;;7.67;4.50;;;10.10;39.40;;;;;;4973997;28;20465;-59
2022/11/05 08:07:30;;;;;;;11.30;7.57;;;10.10;39.30;;;;;;4976084;28;20469;-59
2022/11/05 08:09:57;;;;;;;9.77;6.97;;;10.10;39.50;;;;;;4978578;28;20469;-59
2022/11/05 08:12:23;;;;;;;7.77;4.90;;;10.10;39.50;;;;;;4980196;28;20461;-58
2022/11/05 08:14:50;;;;;;;7.17;4.60;;;10.10;39.20;;;;;;4973763;28;20628;-59
2022/11/05 08:17:18;;;;;;;7.17;5.10;;;10.20;39.30;;;;;;4977192;28;20648;-59
2022/11/05 08:19:45;;;;;;;8.47;4.63;;;10.20;39.30;;;;;;4977881;28;20461;-59
2022/11/05 08:22:12;;;;;;;7.20;4.67;;;10.20;39.30;;;;;;4977903;28;20575;-59
2022/11/05 08:24:39;;;;;;;7.73;4.60;;;10.20;39.10;;;;;;4973507;28;20461;-58
2022/11/05 08:27:05;;;;;;;8.50;4.23;;;10.20;39.20;;;;;;4975879;28;20453;-59
2022/11/05 08:29:32;;;;;;;6.90;3.17;;;10.30;39.10;;;;;;4975951;28;20467;-59
2022/11/05 08:31:59;;;;;;;7.83;4.87;;;10.30;39.00;;;;;;4970126;28;20492;-59
2022/11/05 08:34:27;;;;;;;7.10;4.07;;;10.30;39.20;;;;;;4981777;28;20465;-59
2022/11/05 08:36:54;;;;;;;7.00;3.30;;;10.40;39.00;;;;;;4978242;28;20480;-59
2022/11/05 08:39:20;;;;;;;6.50;2.90;;;10.40;38.90;;;;;;4977972;28;20464;-59
2022/11/05 08:41:47;;;;;;;7.10;3.50;;;10.50;38.70;;;;;;4976444;28;20481;-59
2022/11/05 08:44:14;;;;;;;7.00;4.27;;;10.60;38.70;;;;;;4977445;28;20476;-59
2022/11/05 08:46:41;;;;;;;7.00;3.10;;;10.70;38.60;;;;;;4984028;28;20460;-59
2022/11/05 08:49:07;;;;;;;5.73;3.07;;;10.90;37.90;;;;;;4979954;28;20465;-59
2022/11/05 08:51:35;;;;;;;5.43;2.90;;;11.20;37.40;;;;;;4978599;28;20495;-59
2022/11/05 08:54:02;;;;;;;5.70;3.20;;;11.30;37.10;;;;;;4980735;28;20464;-59
2022/11/05 08:56:29;;;;;;;5.47;3.03;;;11.50;36.60;;;;;;4984193;28;20468;-59
2022/11/05 08:58:56;;;;;;;5.90;2.90;;;11.60;36.10;;;;;;4977206;28;20496;-59
2022/11/05 09:01:22;;;;;;;5.10;2.63;;;11.80;35.70;;;;;;4978989;28;20477;-59
2022/11/05 09:03:51;;;;;;;4.87;2.30;;;11.80;35.20;;;;;;4979896;28;20480;-59
2022/11/05 09:06:19;;;;;;;8.30;3.20;;;11.90;34.90;;;;;;4973774;28;20903;-59
2022/11/05 09:08:47;;;;;;;5.90;3.10;;;11.90;34.70;;;;;;4980110;28;20465;-59
2022/11/05 09:11:13;;;;;;;6.83;3.30;;;11.80;34.60;;;;;;4978835;28;20489;-59
2022/11/05 09:13:40;;;;;;;5.37;2.90;;;11.80;34.30;;;;;;4981245;28;21237;-59
2022/11/05 09:16:17;;;;;;;6.80;3.67;;;11.80;34.30;;;;;;4981516;28;20461;-59
2022/11/05 09:18:44;;;;;;;7.73;3.33;;;11.70;34.50;;;;;;4977497;28;20496;-58
2022/11/05 09:21:11;;;;;;;5.60;2.90;;;11.70;34.50;;;;;;4976116;28;20486;-57
2022/11/05 09:23:38;;;;;;;6.00;4.03;;;11.80;34.60;;;;;;4982556;28;20459;-63
2022/11/05 09:26:06;;;;;;;6.20;3.30;;;11.90;34.00;;;;;;4981739;28;20817;-58
2022/11/05 09:28:33;;;;;;;5.40;2.57;;;11.90;33.60;;;;;;4981617;28;20467;-57
2022/11/05 09:31:00;;;;;;;6.57;5.20;;;11.90;33.60;;;;;;4980143;28;20497;-59
2022/11/05 09:33:27;;;;;;;4.60;1.87;;;11.90;33.60;;;;;;4985427;28;20461;-60
2022/11/05 09:35:54;;;;;;;5.60;2.87;;;11.90;32.90;;;;;;4984262;28;20615;-60
2022/11/05 09:38:20;;;;;;;5.20;2.47;;;11.90;32.60;;;;;;4981478;28;20480;-60
2022/11/05 09:40:57;;;;;;;6.80;2.70;;;12.00;32.90;;;;;;4983919;28;20640;-60
2022/11/05 09:43:30;;;;;;;6.00;3.03;;;12.20;33.00;;;;;;4982517;28;20460;-60
2022/11/05 09:45:59;;;;;;;7.07;2.90;;;12.40;32.50;;;;;;4980187;28;20468;-59
2022/11/05 09:48:30;;;;;;;4.90;2.30;;;12.50;32.30;;;;;;4978130;28;20864;-59
2022/11/05 09:50:58;;;;;;;5.40;1.93;;;12.60;31.70;;;;;;4981356;28;20487;-60
2022/11/05 09:53:25;;;;;;;4.00;1.60;;;12.70;31.10;;;;;;4979733;28;21213;-60
2022/11/05 09:55:54;;;;;;;4.37;1.70;;;12.60;31.10;;;;;;4981257;28;20465;-60
2022/11/05 09:58:30;;;;;;;4.50;1.50;;;12.60;30.50;;;;;;4980690;28;20481;-59
2022/11/05 10:00:59;;;;;;;4.40;1.70;;;12.60;29.80;;;;;;4984505;28;20923;-59
2022/11/05 10:03:28;;;;;;;6.40;4.00;;;12.50;30.20;;;;;;4980193;28;20465;-60
2022/11/05 10:05:58;;;;;;;5.77;2.67;;;12.40;30.50;;;;;;4984028;28;20773;-59
2022/11/05 10:08:29;;;;;;;5.37;3.70;;;12.20;30.90;;;;;;4981084;28;20452;-59
2022/11/05 10:11:01;;;;;;;5.27;2.73;;;12.10;31.40;;;;;;4978673;28;21005;-60
2022/11/05 10:13:35;;;;;;;6.13;2.93;;;12.10;31.90;;;;;;4980341;28;20460;-60
2022/11/05 10:16:15;;;;;;;4.93;2.10;;;12.00;32.00;;;;;;4980871;28;20464;-59
2022/11/05 10:18:44;;;;;;;6.33;3.00;;;11.90;32.30;;;;;;4982297;28;20483;-62
2022/11/05 10:21:16;;;;;;;6.50;2.30;;;11.90;32.50;;;;;;4986767;28;20574;-62
2022/11/05 10:23:44;;;;;;;5.50;2.63;;;11.90;32.70;;;;;;4984968;28;20823;-62
2022/11/05 10:26:16;;;;;;;6.00;3.00;;;11.90;32.70;;;;;;4982797;28;20476;-63
2022/11/05 10:28:43;;;;;;;5.60;2.33;;;11.90;32.70;;;;;;4980022;28;20464;-60
2022/11/05 10:31:14;;;;;;;6.20;2.30;;;12.00;31.90;;;;;;4984489;28;20476;-62
2022/11/05 10:33:44;;;;;;;5.60;2.27;;;12.00;32.30;;;;;;4982997;28;20464;-60
2022/11/05 10:36:14;;;;;;;5.10;2.20;;;12.00;32.60;;;;;;4978376;28;20462;-62
2022/11/05 10:38:41;;;;;;;4.80;2.40;;;11.90;33.10;;;;;;4971597;28;20485;-60
2022/11/05 10:41:21;;;;;;;5.33;2.83;;;11.90;32.00;;;;;;4978734;28;20487;-61
2022/11/05 10:43:50;;;;;;;4.90;2.00;;;11.90;32.60;;;;;;4978090;28;20474;-61
2022/11/05 10:46:31;;;;;;;5.47;2.00;;;11.90;32.70;;;;;;4983002;28;20461;-62
2022/11/05 10:49:14;;;;;;;4.47;1.97;;;11.80;32.90;;;;;;4977676;28;20459;-61
2022/11/05 10:51:43;;;;;;;4.63;2.10;;;11.70;33.20;;;;;;4975060;28;20486;-60
2022/11/05 10:54:17;;;;;;;5.30;3.13;;;11.70;33.60;;;;;;4988583;28;20456;-59
2022/11/05 10:56:43;;;;;;;6.10;4.00;;;11.70;34.40;;;;;;4979898;28;21132;-60
2022/11/05 10:59:21;;;;;;;7.13;4.10;;;11.70;34.40;;;;;;4980655;28;20482;-61
2022/11/05 11:01:56;;;;;;;6.50;4.40;;;11.70;34.00;;;;;;4975390;28;21094;-60
2022/11/05 11:04:25;;;;;;;5.20;2.83;;;11.70;33.70;;;;;;4968751;28;20477;-63
2022/11/05 11:06:54;;;;;;;5.90;2.63;;;11.70;33.20;;;;;;4977479;28;20726;-61
2022/11/05 11:09:24;;;;;;;5.87;2.80;;;11.80;32.90;;;;;;4965570;28;20457;-61
2022/11/05 11:12:04;;;;;;;4.97;3.07;;;11.80;33.30;;;;;;4978746;28;20485;-61
2022/11/05 11:14:32;;;;;;;5.13;2.37;;;11.90;33.50;;;;;;4972686;28;20465;-61
2022/11/05 11:17:17;;;;;;;5.57;2.77;;;12.10;33.30;;;;;;4978988;28;20456;-61
2022/11/05 11:19:46;;;;;;;5.60;2.07;;;12.30;33.10;;;;;;4975618;28;20571;-61
2022/11/05 11:22:19;;;;;;;4.93;2.30;;;12.50;32.10;;;;;;4976391;28;20568;-61
2022/11/05 11:24:50;;;;;;;4.40;2.20;;;12.90;32.20;;;;;;4979598;28;20565;-61
2022/11/05 11:27:32;;;;;;;4.83;1.90;;;13.60;30.70;;;;;;4976772;28;20544;-61
2022/11/05 11:30:02;;;;;;;4.83;1.90;;;15.10;27.90;;;;;;4980394;28;20456;-61
2022/11/05 11:32:37;;;;;;;5.30;2.30;;;16.80;22.30;;;;;;4975438;28;21011;-61
2022/11/05 11:35:07;;;;;;;4.60;1.27;;;18.00;20.60;;;;;;4981499;28;20468;-61
2022/11/05 11:37:40;;;;;;;5.40;1.33;;;18.80;17.50;;;;;;4983168;28;21037;-60
2022/11/05 11:40:16;;;;;;;4.27;2.17;;;19.40;15.20;;;;;;4982080;28;20515;-60
2022/11/05 11:42:47;;;;;;;4.73;1.93;;;18.90;14.60;;;;;;4980438;28;20472;-61
2022/11/05 11:45:19;;;;;;;4.97;1.93;;;18.10;14.20;;;;;;4978271;28;20539;-61
2022/11/05 11:47:50;;;;;;;4.40;2.10;;;17.40;15.40;;;;;;4977440;28;20469;-61
2022/11/05 11:50:35;;;;;;;4.53;2.53;;;16.80;15.90;;;;;;4981172;28;20519;-60
2022/11/05 11:53:26;;;;;;;5.50;3.13;;;16.30;17.00;;;;;;4978580;28;20469;-60
2022/11/05 11:56:02;;;;;;;4.50;2.27;;;15.90;17.20;;;;;;4979778;28;20460;-62
2022/11/05 11:58:38;;;;;;;4.87;2.53;;;15.40;18.50;;;;;;4979309;28;20480;-58
2022/11/05 12:01:26;;;;;;;5.80;3.90;;;15.10;19.90;;;;;;4973054;28;20508;-61
2022/11/05 12:04:02;;;;;;;7.60;4.17;;;14.70;20.00;;;;;;4976848;28;20464;-59
2022/11/05 12:06:34;;;;;;;6.70;3.97;;;14.30;21.50;;;;;;4970860;28;20475;-60
2022/11/05 12:09:10;;;;;;;8.53;4.47;;;14.00;22.60;;;;;;4976003;28;20468;-61
2022/11/05 12:11:42;;;;;;;7.57;3.70;;;13.70;24.60;;;;;;4979683;28;20512;-61
2022/11/05 12:14:20;;;;;;;6.37;3.53;;;13.40;24.60;;;;;;4991115;28;20468;-60
2022/11/05 12:17:00;;;;;;;6.73;3.50;;;13.20;24.60;;;;;;4991427;28;20447;-60
2022/11/05 12:19:53;;;;;;;6.00;3.40;;;12.90;25.20;;;;;;4985178;28;20488;-60
2022/11/05 12:22:29;;;;;;;6.73;3.60;;;12.60;26.40;;;;;;4981223;28;21032;-60
2022/11/05 12:25:27;;;;;;;7.07;3.80;;;12.40;27.20;;;;;;4972643;28;20471;-61
2022/11/05 12:28:09;;;;;;;5.87;3.00;;;12.10;28.40;;;;;;4976190;28;21104;-60
2022/11/05 12:30:47;;;;;;;6.30;3.30;;;12.00;29.40;;;;;;4976868;28;20472;-61
2022/11/05 12:33:26;;;;;;;4.70;2.40;;;11.90;29.90;;;;;;4983065;28;20460;-61
2022/11/05 12:36:04;;;;;;;5.53;2.70;;;11.80;30.50;;;;;;4981941;28;20996;-60
2022/11/05 12:38:52;;;;;;;5.80;3.00;;;11.80;30.70;;;;;;4980821;28;20493;-60
2022/11/05 12:41:25;;;;;;;6.03;3.27;;;11.70;30.90;;;;;;4983881;28;20484;-60
2022/11/05 12:44:27;;;;;;;5.20;2.97;;;11.60;31.00;;;;;;4982841;28;20560;-60
2022/11/05 12:47:07;;;;;;;6.07;3.23;;;11.60;31.40;;;;;;4983213;28;20520;-60
2022/11/05 12:49:50;;;;;;;6.17;3.60;;;11.60;31.90;;;;;;4985609;28;20837;-61
2022/11/05 12:52:36;;;;;;;7.83;4.80;;;11.50;32.40;;;;;;4999763;23;20520;-65
2022/11/05 12:55:09;;;;;;;6.67;4.37;;;11.50;32.60;;;;;;4993544;28;21211;-65
2022/11/05 12:57:39;;;;;;;6.83;3.97;;;11.60;31.90;;;;;;5000801;28;20979;-66
2022/11/05 13:00:14;;;;;;;8.70;3.63;;;11.60;31.90;;;;;;4994698;28;20486;-66
2022/11/05 13:02:47;;;;;;;7.53;4.53;;;11.60;31.90;;;;;;5001514;28;20466;-66
2022/11/05 13:05:18;;;;;;;6.13;3.87;;;11.70;32.20;;;;;;4998992;28;20467;-65
2022/11/05 13:07:53;;;;;;;6.17;3.70;;;11.70;32.20;;;;;;5003843;28;20870;-65
2022/11/05 13:10:27;;;;;;;5.57;3.30;;;11.80;31.70;;;;;;5002093;28;21041;-65
2022/11/05 13:13:02;;;;;;;5.93;3.70;;;11.80;31.20;;;;;;4999673;28;20475;-66
2022/11/05 13:15:33;;;;;;;5.73;3.53;;;11.80;31.00;;;;;;4997346;28;20467;-65
2022/11/05 13:18:05;;;;;;;6.20;3.93;;;11.80;31.00;;;;;;5003047;28;20452;-66
2022/11/05 13:20:35;;;;;;;6.70;3.43;;;11.80;31.20;;;;;;4998120;28;20464;-66
2022/11/05 13:23:12;;;;;;;5.23;3.00;;;11.80;31.30;;;;;;5006104;28;20484;-66
2022/11/05 13:25:45;;;;;;;5.73;3.20;;;11.80;31.50;;;;;;5003378;28;20476;-65
2022/11/05 13:28:20;;;;;;;6.57;3.40;;;11.90;31.40;;;;;;4998564;28;20456;-65
2022/11/05 13:30:51;;;;;;;4.50;2.33;;;11.90;31.60;;;;;;4997528;28;20466;-65
2022/11/05 13:33:23;;;;;;;5.37;2.63;;;11.90;30.30;;;;;;4996510;28;20675;-65
2022/11/05 13:39:02;;;;;;;5.50;2.80;;;11.90;30.20;;;;;;4997909;28;21283;-66
2022/11/05 13:41:42;;;;;;;5.97;2.77;;;11.90;30.30;;;;;;4999936;28;21229;-65
2022/11/05 13:44:25;;;;;;;7.20;3.87;;;11.90;30.10;;;;;;4999729;28;20827;-66
2022/11/05 13:47:07;;;;;;;6.40;3.10;;;11.90;30.30;;;;;;5001862;28;20848;-66
2022/11/05 13:49:47;;;;;;;6.00;2.50;;;11.80;30.90;;;;;;5001256;28;20452;-66
2022/11/05 13:52:39;;;;;;;5.60;3.07;;;11.80;30.70;;;;;;4996795;28;20602;-66